メインページ
METAR-TAF:

METAR-TAF

空港 :

プンタアレナス, チリ

緯度: 53-00S, 経度: 070-51W, 海抜: 37m

現時点の気象観測

当レポートは38分前の21:00(UTC)に作成
北/北東の風 9kt
気温 7°C
湿度 76%
気圧 1006 hPa
視程10km以上
高度4500ftの千切れ雲あり

METAR: SCCI 232100Z 02009KT 9999 BKN045 07/03 Q1006 NOSIG

時間: 18:38 (21:38 UTC)

予報

当レポートは5時間8分前の16:30(UTC)に作成
予報は23日の 18時(UTC)から 24日の 18時(UTC)まで有効
北/北東の風 9kt
視程10km以上
高度4000ftの雲はほとんどない
23日の 23時(UTC)から 24日の 01時(UTC)まで徐々に
東/北東の風 15kt
24日の 07時(UTC)から 24日の 09時(UTC)まで徐々に
視程: 9000m
高度1200ftの雲はほとんどない
高度2000ftの千切れ雲あり
小雨, 霧雨
24日の 09時(UTC)から 24日の 16時(UTC)まで一時的に
の風 15kt
視程: 7000m
高度800ftの雲は散在している
高度1300ftの曇り
小雨
24日の 15時(UTC)から 24日の 17時(UTC)まで徐々に
変向風 3kt

TAF: SCCI 231630Z 2318/2418 03009KT 9999 FEW040 TX08/2318Z TN04/2409Z BECMG 2323/2401 07015KT BECMG 2407/2409 9000 -RADZ FEW012 BKN020 TEMPO 2409/2416 10015KT 7000 BRDZ -RA SCT008 OVC013 BECMG 2415/2417 VRB03KT

4,000以上の空港の気象観測と天気予報(METAR報とTAF報)

利用可能な観測所は地図上に黄色い丸と赤い丸で示す。

丸の上にカーソルを重ねると観測所名を参照できる。

次にクリックすると気象観測と天気予報を参照できる。

マップの切り替え:黒色「×」印の緑ボタンをクリックして拡大、「-」印の緑ボタンをクリックして縮小、緑色の三角印をクリックして隣りの地図に切り替え


METAR-TAF: